sensor_id;sensor_type;location;lat;lon;timestamp;temperature;humidity
46898;DHT22;32646;50.958;6.258;2022-12-07T00:01:10;3.40;99.90
46898;DHT22;32646;50.958;6.258;2022-12-07T00:03:38;3.40;99.90
46898;DHT22;32646;50.958;6.258;2022-12-07T00:06:06;3.40;99.90
46898;DHT22;32646;50.958;6.258;2022-12-07T00:08:34;3.40;99.90
46898;DHT22;32646;50.958;6.258;2022-12-07T00:11:25;3.40;99.90
46898;DHT22;32646;50.958;6.258;2022-12-07T00:14:00;3.40;99.90
46898;DHT22;32646;50.958;6.258;2022-12-07T00:16:30;3.40;99.90
46898;DHT22;32646;50.958;6.258;2022-12-07T00:18:58;3.50;99.90
46898;DHT22;32646;50.958;6.258;2022-12-07T00:21:27;3.60;99.90
46898;DHT22;32646;50.958;6.258;2022-12-07T00:23:55;3.60;99.90
46898;DHT22;32646;50.958;6.258;2022-12-07T00:26:31;3.70;99.90
46898;DHT22;32646;50.958;6.258;2022-12-07T00:29:01;3.70;99.90
46898;DHT22;32646;50.958;6.258;2022-12-07T00:31:32;3.60;99.90
46898;DHT22;32646;50.958;6.258;2022-12-07T00:33:59;3.60;99.90
46898;DHT22;32646;50.958;6.258;2022-12-07T00:36:26;3.60;99.90
46898;DHT22;32646;50.958;6.258;2022-12-07T00:38:58;3.50;99.90
46898;DHT22;32646;50.958;6.258;2022-12-07T00:41:27;3.60;99.90
46898;DHT22;32646;50.958;6.258;2022-12-07T00:43:54;3.50;99.90
46898;DHT22;32646;50.958;6.258;2022-12-07T00:46:22;3.60;99.90
46898;DHT22;32646;50.958;6.258;2022-12-07T00:48:50;3.60;99.90
46898;DHT22;32646;50.958;6.258;2022-12-07T00:51:18;3.60;99.90
46898;DHT22;32646;50.958;6.258;2022-12-07T00:53:45;3.60;99.90
46898;DHT22;32646;50.958;6.258;2022-12-07T00:56:18;3.60;99.90
46898;DHT22;32646;50.958;6.258;2022-12-07T00:59:02;3.60;99.90
46898;DHT22;32646;50.958;6.258;2022-12-07T01:01:34;3.60;99.90
46898;DHT22;32646;50.958;6.258;2022-12-07T01:04:02;3.60;99.90
46898;DHT22;32646;50.958;6.258;2022-12-07T01:06:29;3.70;99.90
46898;DHT22;32646;50.958;6.258;2022-12-07T01:08:55;3.80;99.90
46898;DHT22;32646;50.958;6.258;2022-12-07T01:11:25;3.90;99.90
46898;DHT22;32646;50.958;6.258;2022-12-07T01:13:54;3.90;99.90
46898;DHT22;32646;50.958;6.258;2022-12-07T01:16:22;4.00;99.90
46898;DHT22;32646;50.958;6.258;2022-12-07T01:18:51;4.00;99.90
46898;DHT22;32646;50.958;6.258;2022-12-07T01:21:20;4.00;99.90
46898;DHT22;32646;50.958;6.258;2022-12-07T01:23:47;4.00;99.90
46898;DHT22;32646;50.958;6.258;2022-12-07T01:26:17;4.00;99.90
46898;DHT22;32646;50.958;6.258;2022-12-07T01:28:44;4.00;99.90
46898;DHT22;32646;50.958;6.258;2022-12-07T01:31:17;4.10;99.90
46898;DHT22;32646;50.958;6.258;2022-12-07T01:33:46;4.00;99.90
46898;DHT22;32646;50.958;6.258;2022-12-07T01:36:24;4.00;99.90
46898;DHT22;32646;50.958;6.258;2022-12-07T01:38:55;4.00;99.90
46898;DHT22;32646;50.958;6.258;2022-12-07T01:41:24;4.10;99.90
46898;DHT22;32646;50.958;6.258;2022-12-07T01:44:13;4.10;99.90
46898;DHT22;32646;50.958;6.258;2022-12-07T01:46:42;4.10;99.90
46898;DHT22;32646;50.958;6.258;2022-12-07T01:49:14;4.10;99.90
46898;DHT22;32646;50.958;6.258;2022-12-07T01:51:43;4.00;99.90
46898;DHT22;32646;50.958;6.258;2022-12-07T01:54:12;4.00;99.90
46898;DHT22;32646;50.958;6.258;2022-12-07T01:56:47;4.00;99.90
46898;DHT22;32646;50.958;6.258;2022-12-07T01:59:16;4.00;99.90
46898;DHT22;32646;50.958;6.258;2022-12-07T02:01:44;4.10;99.90
46898;DHT22;32646;50.958;6.258;2022-12-07T02:04:11;4.00;99.90
46898;DHT22;32646;50.958;6.258;2022-12-07T02:06:38;4.00;99.90
46898;DHT22;32646;50.958;6.258;2022-12-07T02:09:05;4.10;99.90
46898;DHT22;32646;50.958;6.258;2022-12-07T02:11:32;4.10;99.90
46898;DHT22;32646;50.958;6.258;2022-12-07T02:13:58;4.10;99.90
46898;DHT22;32646;50.958;6.258;2022-12-07T02:16:33;4.00;99.90
46898;DHT22;32646;50.958;6.258;2022-12-07T02:27:57;4.10;99.90
46898;DHT22;32646;50.958;6.258;2022-12-07T02:30:28;4.00;99.90
46898;DHT22;32646;50.958;6.258;2022-12-07T02:33:04;4.00;99.90
46898;DHT22;32646;50.958;6.258;2022-12-07T02:35:53;4.00;99.90
46898;DHT22;32646;50.958;6.258;2022-12-07T02:38:41;4.00;99.90
46898;DHT22;32646;50.958;6.258;2022-12-07T02:41:13;4.00;99.90
46898;DHT22;32646;50.958;6.258;2022-12-07T02:43:48;4.00;99.90
46898;DHT22;32646;50.958;6.258;2022-12-07T02:46:29;4.00;99.90
46898;DHT22;32646;50.958;6.258;2022-12-07T02:49:10;4.00;99.90
46898;DHT22;32646;50.958;6.258;2022-12-07T02:51:43;4.00;99.90
46898;DHT22;32646;50.958;6.258;2022-12-07T02:54:16;4.00;99.90
46898;DHT22;32646;50.958;6.258;2022-12-07T02:56:46;4.00;99.90
46898;DHT22;32646;50.958;6.258;2022-12-07T03:04:40;3.90;99.90
46898;DHT22;32646;50.958;6.258;2022-12-07T03:10:15;4.00;99.90
46898;DHT22;32646;50.958;6.258;2022-12-07T03:12:58;3.90;99.90
46898;DHT22;32646;50.958;6.258;2022-12-07T03:18:20;3.80;99.90
46898;DHT22;32646;50.958;6.258;2022-12-07T03:20:50;3.80;99.90
46898;DHT22;32646;50.958;6.258;2022-12-07T03:23:18;3.80;99.90
46898;DHT22;32646;50.958;6.258;2022-12-07T03:25:47;3.80;99.90
46898;DHT22;32646;50.958;6.258;2022-12-07T03:28:18;3.90;99.90
46898;DHT22;32646;50.958;6.258;2022-12-07T03:30:56;3.80;99.90
46898;DHT22;32646;50.958;6.258;2022-12-07T03:33:31;3.80;99.90
46898;DHT22;32646;50.958;6.258;2022-12-07T03:41:41;3.80;99.90
46898;DHT22;32646;50.958;6.258;2022-12-07T03:44:12;3.80;99.90
46898;DHT22;32646;50.958;6.258;2022-12-07T03:47:02;3.70;99.90
46898;DHT22;32646;50.958;6.258;2022-12-07T03:49:40;3.70;99.90
46898;DHT22;32646;50.958;6.258;2022-12-07T03:52:21;3.70;99.90
46898;DHT22;32646;50.958;6.258;2022-12-07T03:55:02;3.70;99.90
46898;DHT22;32646;50.958;6.258;2022-12-07T03:57:31;3.80;99.90
46898;DHT22;32646;50.958;6.258;2022-12-07T03:59:59;3.80;99.90
46898;DHT22;32646;50.958;6.258;2022-12-07T04:02:27;3.70;99.90
46898;DHT22;32646;50.958;6.258;2022-12-07T04:04:55;3.70;99.90
46898;DHT22;32646;50.958;6.258;2022-12-07T04:07:22;3.60;99.90
46898;DHT22;32646;50.958;6.258;2022-12-07T04:09:48;3.60;99.90
46898;DHT22;32646;50.958;6.258;2022-12-07T04:12:15;3.50;99.90
46898;DHT22;32646;50.958;6.258;2022-12-07T04:14:41;3.50;99.90
46898;DHT22;32646;50.958;6.258;2022-12-07T04:17:08;3.50;99.90
46898;DHT22;32646;50.958;6.258;2022-12-07T04:19:35;3.50;99.90
46898;DHT22;32646;50.958;6.258;2022-12-07T04:22:03;3.50;99.90
46898;DHT22;32646;50.958;6.258;2022-12-07T04:24:30;3.50;99.90
46898;DHT22;32646;50.958;6.258;2022-12-07T04:26:57;3.40;99.90
46898;DHT22;32646;50.958;6.258;2022-12-07T04:29:24;3.40;99.90
46898;DHT22;32646;50.958;6.258;2022-12-07T04:31:51;3.40;99.90
46898;DHT22;32646;50.958;6.258;2022-12-07T04:34:18;3.40;99.90
46898;DHT22;32646;50.958;6.258;2022-12-07T04:36:46;3.40;99.90
46898;DHT22;32646;50.958;6.258;2022-12-07T04:39:24;3.40;99.90
46898;DHT22;32646;50.958;6.258;2022-12-07T04:41:52;3.50;99.90
46898;DHT22;32646;50.958;6.258;2022-12-07T04:44:20;3.50;99.90
46898;DHT22;32646;50.958;6.258;2022-12-07T04:46:46;3.50;99.90
46898;DHT22;32646;50.958;6.258;2022-12-07T04:49:14;3.50;99.90
46898;DHT22;32646;50.958;6.258;2022-12-07T04:51:41;3.40;99.90
46898;DHT22;32646;50.958;6.258;2022-12-07T04:54:08;3.40;99.90
46898;DHT22;32646;50.958;6.258;2022-12-07T04:56:35;3.40;99.90
46898;DHT22;32646;50.958;6.258;2022-12-07T04:59:02;3.40;99.90
46898;DHT22;32646;50.958;6.258;2022-12-07T05:01:30;3.40;99.90
46898;DHT22;32646;50.958;6.258;2022-12-07T05:03:57;3.50;99.90
46898;DHT22;32646;50.958;6.258;2022-12-07T05:06:23;3.50;99.90
46898;DHT22;32646;50.958;6.258;2022-12-07T05:08:50;3.50;99.90
46898;DHT22;32646;50.958;6.258;2022-12-07T05:11:16;3.50;99.90
46898;DHT22;32646;50.958;6.258;2022-12-07T05:13:43;3.50;99.90
46898;DHT22;32646;50.958;6.258;2022-12-07T05:16:10;3.50;99.90
46898;DHT22;32646;50.958;6.258;2022-12-07T05:18:36;3.60;99.90
46898;DHT22;32646;50.958;6.258;2022-12-07T05:21:03;3.60;99.90
46898;DHT22;32646;50.958;6.258;2022-12-07T05:23:29;3.70;99.90
46898;DHT22;32646;50.958;6.258;2022-12-07T05:25:56;3.60;99.90
46898;DHT22;32646;50.958;6.258;2022-12-07T05:28:23;3.70;99.90
46898;DHT22;32646;50.958;6.258;2022-12-07T05:30:49;3.70;99.90
46898;DHT22;32646;50.958;6.258;2022-12-07T05:33:21;3.70;99.90
46898;DHT22;32646;50.958;6.258;2022-12-07T05:35:47;3.70;99.90
46898;DHT22;32646;50.958;6.258;2022-12-07T05:38:14;3.80;99.90
46898;DHT22;32646;50.958;6.258;2022-12-07T05:40:40;3.80;99.90
46898;DHT22;32646;50.958;6.258;2022-12-07T05:43:07;3.70;99.90
46898;DHT22;32646;50.958;6.258;2022-12-07T05:45:33;3.70;99.90
46898;DHT22;32646;50.958;6.258;2022-12-07T05:48:00;3.70;99.90
46898;DHT22;32646;50.958;6.258;2022-12-07T05:50:26;3.70;99.90
46898;DHT22;32646;50.958;6.258;2022-12-07T05:52:53;3.70;99.90
46898;DHT22;32646;50.958;6.258;2022-12-07T05:55:20;3.70;99.90
46898;DHT22;32646;50.958;6.258;2022-12-07T05:57:46;3.70;99.90
46898;DHT22;32646;50.958;6.258;2022-12-07T06:00:13;3.70;99.90
46898;DHT22;32646;50.958;6.258;2022-12-07T06:02:40;3.70;99.90
46898;DHT22;32646;50.958;6.258;2022-12-07T06:05:07;3.70;99.90
46898;DHT22;32646;50.958;6.258;2022-12-07T06:07:34;3.70;99.90
46898;DHT22;32646;50.958;6.258;2022-12-07T06:10:01;3.70;99.90
46898;DHT22;32646;50.958;6.258;2022-12-07T06:12:28;3.70;99.90
46898;DHT22;32646;50.958;6.258;2022-12-07T06:14:55;3.70;99.90
46898;DHT22;32646;50.958;6.258;2022-12-07T06:17:22;3.70;99.90
46898;DHT22;32646;50.958;6.258;2022-12-07T06:19:48;3.60;99.90
46898;DHT22;32646;50.958;6.258;2022-12-07T06:22:15;3.60;99.90
46898;DHT22;32646;50.958;6.258;2022-12-07T06:24:42;3.60;99.90
46898;DHT22;32646;50.958;6.258;2022-12-07T06:27:09;3.50;99.90
46898;DHT22;32646;50.958;6.258;2022-12-07T06:29:36;3.60;99.90
46898;DHT22;32646;50.958;6.258;2022-12-07T06:32:04;3.60;99.90
46898;DHT22;32646;50.958;6.258;2022-12-07T06:34:31;3.60;99.90
46898;DHT22;32646;50.958;6.258;2022-12-07T06:36:57;3.60;99.90
46898;DHT22;32646;50.958;6.258;2022-12-07T06:39:26;3.60;99.90
46898;DHT22;32646;50.958;6.258;2022-12-07T06:41:53;3.60;99.90
46898;DHT22;32646;50.958;6.258;2022-12-07T06:44:20;3.60;99.90
46898;DHT22;32646;50.958;6.258;2022-12-07T06:46:47;3.50;99.90
46898;DHT22;32646;50.958;6.258;2022-12-07T06:49:14;3.50;99.90
46898;DHT22;32646;50.958;6.258;2022-12-07T06:51:41;3.50;99.90
46898;DHT22;32646;50.958;6.258;2022-12-07T06:54:09;3.50;99.90
46898;DHT22;32646;50.958;6.258;2022-12-07T06:56:36;3.60;99.90
46898;DHT22;32646;50.958;6.258;2022-12-07T06:59:04;3.60;99.90
46898;DHT22;32646;50.958;6.258;2022-12-07T07:01:31;3.60;99.90
46898;DHT22;32646;50.958;6.258;2022-12-07T07:03:58;3.60;99.90
46898;DHT22;32646;50.958;6.258;2022-12-07T07:06:25;3.50;99.90
46898;DHT22;32646;50.958;6.258;2022-12-07T07:08:51;3.50;99.90
46898;DHT22;32646;50.958;6.258;2022-12-07T07:11:19;3.50;99.90
46898;DHT22;32646;50.958;6.258;2022-12-07T07:13:45;3.60;99.90
46898;DHT22;32646;50.958;6.258;2022-12-07T07:16:12;3.50;99.90
46898;DHT22;32646;50.958;6.258;2022-12-07T07:18:39;3.60;99.90
46898;DHT22;32646;50.958;6.258;2022-12-07T07:21:05;3.60;99.90
46898;DHT22;32646;50.958;6.258;2022-12-07T07:23:32;3.60;99.90
46898;DHT22;32646;50.958;6.258;2022-12-07T07:25:59;3.50;99.90
46898;DHT22;32646;50.958;6.258;2022-12-07T07:28:25;3.50;99.90
46898;DHT22;32646;50.958;6.258;2022-12-07T07:30:52;3.50;99.90
46898;DHT22;32646;50.958;6.258;2022-12-07T07:33:18;3.40;99.90
46898;DHT22;32646;50.958;6.258;2022-12-07T07:35:45;3.40;99.90
46898;DHT22;32646;50.958;6.258;2022-12-07T07:38:11;3.40;99.90
46898;DHT22;32646;50.958;6.258;2022-12-07T07:40:38;3.40;99.90
46898;DHT22;32646;50.958;6.258;2022-12-07T07:43:04;3.40;99.90
46898;DHT22;32646;50.958;6.258;2022-12-07T07:45:31;3.30;99.90
46898;DHT22;32646;50.958;6.258;2022-12-07T07:47:58;3.30;99.90
46898;DHT22;32646;50.958;6.258;2022-12-07T07:50:24;3.30;99.90
46898;DHT22;32646;50.958;6.258;2022-12-07T07:52:51;3.40;99.90
46898;DHT22;32646;50.958;6.258;2022-12-07T07:55:18;3.30;99.90
46898;DHT22;32646;50.958;6.258;2022-12-07T07:57:44;3.30;99.90
46898;DHT22;32646;50.958;6.258;2022-12-07T08:00:20;3.40;99.90
46898;DHT22;32646;50.958;6.258;2022-12-07T08:02:46;3.50;99.90
46898;DHT22;32646;50.958;6.258;2022-12-07T08:05:13;3.50;99.90
46898;DHT22;32646;50.958;6.258;2022-12-07T08:07:40;3.50;99.90
46898;DHT22;32646;50.958;6.258;2022-12-07T08:10:09;3.50;99.90
46898;DHT22;32646;50.958;6.258;2022-12-07T08:12:41;3.50;99.90
46898;DHT22;32646;50.958;6.258;2022-12-07T08:15:08;3.60;99.90
46898;DHT22;32646;50.958;6.258;2022-12-07T08:17:34;3.50;99.90
46898;DHT22;32646;50.958;6.258;2022-12-07T08:20:01;3.50;99.90
46898;DHT22;32646;50.958;6.258;2022-12-07T08:22:28;3.40;99.90
46898;DHT22;32646;50.958;6.258;2022-12-07T08:24:54;3.40;99.90
46898;DHT22;32646;50.958;6.258;2022-12-07T08:27:21;3.40;99.90
46898;DHT22;32646;50.958;6.258;2022-12-07T08:29:47;3.30;99.90
46898;DHT22;32646;50.958;6.258;2022-12-07T08:32:14;3.20;99.90
46898;DHT22;32646;50.958;6.258;2022-12-07T08:34:40;3.30;99.90
46898;DHT22;32646;50.958;6.258;2022-12-07T08:37:07;3.30;99.90
46898;DHT22;32646;50.958;6.258;2022-12-07T08:39:33;3.50;99.90
46898;DHT22;32646;50.958;6.258;2022-12-07T08:42:00;3.70;99.90
46898;DHT22;32646;50.958;6.258;2022-12-07T08:44:26;3.90;99.90
46898;DHT22;32646;50.958;6.258;2022-12-07T08:46:59;4.00;99.90
46898;DHT22;32646;50.958;6.258;2022-12-07T08:49:41;4.00;99.90
46898;DHT22;32646;50.958;6.258;2022-12-07T08:52:09;3.90;99.90
46898;DHT22;32646;50.958;6.258;2022-12-07T08:54:38;3.80;99.90
46898;DHT22;32646;50.958;6.258;2022-12-07T08:57:06;3.70;99.90
46898;DHT22;32646;50.958;6.258;2022-12-07T08:59:34;3.70;99.90
46898;DHT22;32646;50.958;6.258;2022-12-07T09:02:03;3.90;99.90
46898;DHT22;32646;50.958;6.258;2022-12-07T09:04:29;4.20;99.90
46898;DHT22;32646;50.958;6.258;2022-12-07T09:06:56;4.30;99.90
46898;DHT22;32646;50.958;6.258;2022-12-07T09:09:23;4.40;99.90
46898;DHT22;32646;50.958;6.258;2022-12-07T09:11:49;4.40;99.90
46898;DHT22;32646;50.958;6.258;2022-12-07T09:14:16;4.50;99.90
46898;DHT22;32646;50.958;6.258;2022-12-07T09:16:42;4.40;99.90
46898;DHT22;32646;50.958;6.258;2022-12-07T09:19:09;4.50;99.90
46898;DHT22;32646;50.958;6.258;2022-12-07T09:21:35;4.70;99.90
46898;DHT22;32646;50.958;6.258;2022-12-07T09:24:02;4.90;99.90
46898;DHT22;32646;50.958;6.258;2022-12-07T09:26:28;5.20;99.90
46898;DHT22;32646;50.958;6.258;2022-12-07T09:28:55;5.60;99.90
46898;DHT22;32646;50.958;6.258;2022-12-07T09:31:21;5.90;99.90
46898;DHT22;32646;50.958;6.258;2022-12-07T09:33:59;5.80;99.90
46898;DHT22;32646;50.958;6.258;2022-12-07T09:36:26;5.60;99.90
46898;DHT22;32646;50.958;6.258;2022-12-07T09:38:53;5.60;99.90
46898;DHT22;32646;50.958;6.258;2022-12-07T09:41:21;5.50;99.90
46898;DHT22;32646;50.958;6.258;2022-12-07T09:43:48;5.20;99.90
46898;DHT22;32646;50.958;6.258;2022-12-07T09:46:17;4.80;99.90
46898;DHT22;32646;50.958;6.258;2022-12-07T09:48:45;4.70;99.90
46898;DHT22;32646;50.958;6.258;2022-12-07T09:51:16;4.60;99.90
46898;DHT22;32646;50.958;6.258;2022-12-07T09:53:50;4.50;99.90
46898;DHT22;32646;50.958;6.258;2022-12-07T09:56:18;4.50;99.90
46898;DHT22;32646;50.958;6.258;2022-12-07T09:58:46;4.40;99.90
46898;DHT22;32646;50.958;6.258;2022-12-07T10:01:18;4.40;99.90
46898;DHT22;32646;50.958;6.258;2022-12-07T10:04:17;4.40;99.90
46898;DHT22;32646;50.958;6.258;2022-12-07T10:06:45;4.50;99.90
46898;DHT22;32646;50.958;6.258;2022-12-07T10:09:13;4.60;99.90
46898;DHT22;32646;50.958;6.258;2022-12-07T10:12:18;4.70;99.90
46898;DHT22;32646;50.958;6.258;2022-12-07T10:14:58;4.80;99.90
46898;DHT22;32646;50.958;6.258;2022-12-07T10:22:38;4.90;99.90
46898;DHT22;32646;50.958;6.258;2022-12-07T10:25:21;4.90;99.90
46898;DHT22;32646;50.958;6.258;2022-12-07T10:31:15;5.10;99.90
46898;DHT22;32646;50.958;6.258;2022-12-07T10:33:38;5.30;99.90
46898;DHT22;32646;50.958;6.258;2022-12-07T10:38:49;5.60;99.90
46898;DHT22;32646;50.958;6.258;2022-12-07T10:41:16;5.80;99.90
46898;DHT22;32646;50.958;6.258;2022-12-07T10:43:47;6.10;99.90
46898;DHT22;32646;50.958;6.258;2022-12-07T10:54:48;7.00;99.90
46898;DHT22;32646;50.958;6.258;2022-12-07T10:57:43;7.10;99.90
46898;DHT22;32646;50.958;6.258;2022-12-07T11:00:22;6.80;99.90
46898;DHT22;32646;50.958;6.258;2022-12-07T11:03:11;6.70;99.90
46898;DHT22;32646;50.958;6.258;2022-12-07T11:11:40;7.30;99.90
46898;DHT22;32646;50.958;6.258;2022-12-07T11:14:28;7.90;99.90
46898;DHT22;32646;50.958;6.258;2022-12-07T11:17:10;7.90;99.90
46898;DHT22;32646;50.958;6.258;2022-12-07T11:31:37;7.10;99.90
46898;DHT22;32646;50.958;6.258;2022-12-07T11:36:56;6.70;99.90
46898;DHT22;32646;50.958;6.258;2022-12-07T11:42:00;6.40;99.90
46898;DHT22;32646;50.958;6.258;2022-12-07T11:58:21;6.90;99.90
46898;DHT22;32646;50.958;6.258;2022-12-07T12:00:52;7.00;99.90
46898;DHT22;32646;50.958;6.258;2022-12-07T12:03:29;6.70;99.90
46898;DHT22;32646;50.958;6.258;2022-12-07T12:05:57;6.50;99.90
46898;DHT22;32646;50.958;6.258;2022-12-07T12:08:33;6.40;99.90
46898;DHT22;32646;50.958;6.258;2022-12-07T12:23:13;6.10;99.90
46898;DHT22;32646;50.958;6.258;2022-12-07T12:25:47;6.10;99.90
46898;DHT22;32646;50.958;6.258;2022-12-07T12:28:32;6.20;99.90
46898;DHT22;32646;50.958;6.258;2022-12-07T12:33:50;6.30;99.90
46898;DHT22;32646;50.958;6.258;2022-12-07T12:36:24;6.40;99.90
46898;DHT22;32646;50.958;6.258;2022-12-07T12:39:09;6.50;99.90
46898;DHT22;32646;50.958;6.258;2022-12-07T12:47:01;7.00;99.90
46898;DHT22;32646;50.958;6.258;2022-12-07T12:51:58;7.00;99.90
46898;DHT22;32646;50.958;6.258;2022-12-07T12:54:34;6.80;99.90
46898;DHT22;32646;50.958;6.258;2022-12-07T12:57:27;6.70;99.90
46898;DHT22;32646;50.958;6.258;2022-12-07T13:04:53;6.40;99.90
46898;DHT22;32646;50.958;6.258;2022-12-07T13:15:42;6.30;99.90
46898;DHT22;32646;50.958;6.258;2022-12-07T13:23:26;6.20;99.90
46898;DHT22;32646;50.958;6.258;2022-12-07T13:25:55;6.10;99.90
46898;DHT22;32646;50.958;6.258;2022-12-07T13:28:27;6.10;99.90
46898;DHT22;32646;50.958;6.258;2022-12-07T13:33:44;6.00;99.90
46898;DHT22;32646;50.958;6.258;2022-12-07T13:36:25;6.00;99.90
46898;DHT22;32646;50.958;6.258;2022-12-07T13:38:53;6.00;99.90
46898;DHT22;32646;50.958;6.258;2022-12-07T13:41:23;6.00;99.90
46898;DHT22;32646;50.958;6.258;2022-12-07T13:43:51;6.00;99.90
46898;DHT22;32646;50.958;6.258;2022-12-07T13:46:24;5.90;99.90
46898;DHT22;32646;50.958;6.258;2022-12-07T13:48:51;6.00;99.90
46898;DHT22;32646;50.958;6.258;2022-12-07T13:51:27;5.90;99.90
46898;DHT22;32646;50.958;6.258;2022-12-07T13:53:59;5.90;99.90
46898;DHT22;32646;50.958;6.258;2022-12-07T13:56:32;6.00;99.90
46898;DHT22;32646;50.958;6.258;2022-12-07T13:58:59;5.90;99.90
46898;DHT22;32646;50.958;6.258;2022-12-07T14:01:26;6.00;99.90
46898;DHT22;32646;50.958;6.258;2022-12-07T14:03:54;5.90;99.90
46898;DHT22;32646;50.958;6.258;2022-12-07T14:06:26;5.90;99.90
46898;DHT22;32646;50.958;6.258;2022-12-07T14:09:15;6.00;99.90
46898;DHT22;32646;50.958;6.258;2022-12-07T14:11:42;6.00;99.90
46898;DHT22;32646;50.958;6.258;2022-12-07T14:14:19;6.10;99.90
46898;DHT22;32646;50.958;6.258;2022-12-07T14:17:17;6.10;99.90
46898;DHT22;32646;50.958;6.258;2022-12-07T14:25:21;6.10;99.90
46898;DHT22;32646;50.958;6.258;2022-12-07T14:27:58;6.10;99.90
46898;DHT22;32646;50.958;6.258;2022-12-07T14:30:30;6.10;99.90
46898;DHT22;32646;50.958;6.258;2022-12-07T14:33:03;6.00;99.90
46898;DHT22;32646;50.958;6.258;2022-12-07T14:35:31;6.00;99.90
46898;DHT22;32646;50.958;6.258;2022-12-07T14:37:58;5.90;99.90
46898;DHT22;32646;50.958;6.258;2022-12-07T14:40:27;5.90;99.90
46898;DHT22;32646;50.958;6.258;2022-12-07T14:43:03;5.90;99.90
46898;DHT22;32646;50.958;6.258;2022-12-07T14:45:31;5.80;99.90
46898;DHT22;32646;50.958;6.258;2022-12-07T14:47:57;5.80;99.90
46898;DHT22;32646;50.958;6.258;2022-12-07T14:50:45;5.70;99.90
46898;DHT22;32646;50.958;6.258;2022-12-07T14:53:40;5.70;99.90
46898;DHT22;32646;50.958;6.258;2022-12-07T14:56:07;5.60;99.90
46898;DHT22;32646;50.958;6.258;2022-12-07T14:58:34;5.50;99.90
46898;DHT22;32646;50.958;6.258;2022-12-07T15:01:01;5.40;99.90
46898;DHT22;32646;50.958;6.258;2022-12-07T15:03:27;5.30;99.90
46898;DHT22;32646;50.958;6.258;2022-12-07T15:05:54;5.30;99.90
46898;DHT22;32646;50.958;6.258;2022-12-07T15:08:20;5.30;99.90
46898;DHT22;32646;50.958;6.258;2022-12-07T15:10:47;5.20;99.90
46898;DHT22;32646;50.958;6.258;2022-12-07T15:13:14;5.10;99.90
46898;DHT22;32646;50.958;6.258;2022-12-07T15:15:40;5.10;99.90
46898;DHT22;32646;50.958;6.258;2022-12-07T15:18:07;5.00;99.90
46898;DHT22;32646;50.958;6.258;2022-12-07T15:20:33;4.90;99.90
46898;DHT22;32646;50.958;6.258;2022-12-07T15:23:00;4.80;99.90
46898;DHT22;32646;50.958;6.258;2022-12-07T15:25:26;4.80;99.90
46898;DHT22;32646;50.958;6.258;2022-12-07T15:27:53;4.60;99.90
46898;DHT22;32646;50.958;6.258;2022-12-07T15:30:19;4.60;99.90
46898;DHT22;32646;50.958;6.258;2022-12-07T15:32:52;4.50;99.90
46898;DHT22;32646;50.958;6.258;2022-12-07T15:35:19;4.40;99.90
46898;DHT22;32646;50.958;6.258;2022-12-07T15:37:46;4.30;99.90
46898;DHT22;32646;50.958;6.258;2022-12-07T15:40:13;4.10;99.90
46898;DHT22;32646;50.958;6.258;2022-12-07T15:42:40;4.10;99.90
46898;DHT22;32646;50.958;6.258;2022-12-07T15:45:08;4.00;99.90
46898;DHT22;32646;50.958;6.258;2022-12-07T15:47:40;4.00;99.90
46898;DHT22;32646;50.958;6.258;2022-12-07T15:50:27;4.00;99.90
46898;DHT22;32646;50.958;6.258;2022-12-07T15:52:54;3.90;99.90
46898;DHT22;32646;50.958;6.258;2022-12-07T15:55:20;3.80;99.90
46898;DHT22;32646;50.958;6.258;2022-12-07T15:57:47;3.80;99.90
46898;DHT22;32646;50.958;6.258;2022-12-07T16:00:14;3.70;99.90
46898;DHT22;32646;50.958;6.258;2022-12-07T16:02:40;3.60;99.90
46898;DHT22;32646;50.958;6.258;2022-12-07T16:05:07;3.50;99.90
46898;DHT22;32646;50.958;6.258;2022-12-07T16:07:34;3.40;99.90
46898;DHT22;32646;50.958;6.258;2022-12-07T16:10:00;3.40;99.90
46898;DHT22;32646;50.958;6.258;2022-12-07T16:12:27;3.30;99.90
46898;DHT22;32646;50.958;6.258;2022-12-07T16:14:53;3.20;99.90
46898;DHT22;32646;50.958;6.258;2022-12-07T16:17:20;3.20;99.90
46898;DHT22;32646;50.958;6.258;2022-12-07T16:19:46;3.20;99.90
46898;DHT22;32646;50.958;6.258;2022-12-07T16:22:13;3.10;99.90
46898;DHT22;32646;50.958;6.258;2022-12-07T16:24:39;3.00;99.90
46898;DHT22;32646;50.958;6.258;2022-12-07T16:27:06;3.00;99.90
46898;DHT22;32646;50.958;6.258;2022-12-07T16:29:32;3.00;99.90
46898;DHT22;32646;50.958;6.258;2022-12-07T16:31:59;3.00;99.90
46898;DHT22;32646;50.958;6.258;2022-12-07T16:34:25;3.10;99.90
46898;DHT22;32646;50.958;6.258;2022-12-07T16:36:52;3.10;99.90
46898;DHT22;32646;50.958;6.258;2022-12-07T16:39:34;3.10;99.90
46898;DHT22;32646;50.958;6.258;2022-12-07T16:42:01;3.20;99.90
46898;DHT22;32646;50.958;6.258;2022-12-07T16:44:28;3.20;99.90
46898;DHT22;32646;50.958;6.258;2022-12-07T16:46:54;3.30;99.90
46898;DHT22;32646;50.958;6.258;2022-12-07T16:49:21;3.30;99.90
46898;DHT22;32646;50.958;6.258;2022-12-07T16:51:51;3.40;99.90
46898;DHT22;32646;50.958;6.258;2022-12-07T16:54:38;3.40;99.90
46898;DHT22;32646;50.958;6.258;2022-12-07T16:57:04;3.50;99.90
46898;DHT22;32646;50.958;6.258;2022-12-07T16:59:31;3.50;99.90
46898;DHT22;32646;50.958;6.258;2022-12-07T17:01:57;3.60;99.90
46898;DHT22;32646;50.958;6.258;2022-12-07T17:04:25;3.60;99.90
46898;DHT22;32646;50.958;6.258;2022-12-07T17:06:53;3.70;99.90
46898;DHT22;32646;50.958;6.258;2022-12-07T17:09:20;3.70;99.90
46898;DHT22;32646;50.958;6.258;2022-12-07T17:11:47;3.70;99.90
46898;DHT22;32646;50.958;6.258;2022-12-07T17:14:14;3.80;99.90
46898;DHT22;32646;50.958;6.258;2022-12-07T17:16:41;3.80;99.90
46898;DHT22;32646;50.958;6.258;2022-12-07T17:19:10;3.80;99.90
46898;DHT22;32646;50.958;6.258;2022-12-07T17:21:37;3.90;99.90
46898;DHT22;32646;50.958;6.258;2022-12-07T17:24:06;3.90;99.90
46898;DHT22;32646;50.958;6.258;2022-12-07T17:26:33;4.00;99.90
46898;DHT22;32646;50.958;6.258;2022-12-07T17:29:03;4.00;99.90
46898;DHT22;32646;50.958;6.258;2022-12-07T17:31:30;4.00;99.90
46898;DHT22;32646;50.958;6.258;2022-12-07T17:33:57;4.10;99.90
46898;DHT22;32646;50.958;6.258;2022-12-07T17:36:27;4.10;99.90
46898;DHT22;32646;50.958;6.258;2022-12-07T17:38:54;4.10;99.90
46898;DHT22;32646;50.958;6.258;2022-12-07T17:41:26;4.20;99.90
46898;DHT22;32646;50.958;6.258;2022-12-07T17:43:53;4.20;99.90
46898;DHT22;32646;50.958;6.258;2022-12-07T17:46:20;4.20;99.90
46898;DHT22;32646;50.958;6.258;2022-12-07T17:48:46;4.20;99.90
46898;DHT22;32646;50.958;6.258;2022-12-07T17:51:13;4.20;99.90
46898;DHT22;32646;50.958;6.258;2022-12-07T17:53:40;4.10;99.90
46898;DHT22;32646;50.958;6.258;2022-12-07T17:56:06;4.00;99.90
46898;DHT22;32646;50.958;6.258;2022-12-07T17:58:53;4.10;99.90
46898;DHT22;32646;50.958;6.258;2022-12-07T18:01:20;4.00;99.90
46898;DHT22;32646;50.958;6.258;2022-12-07T18:03:49;4.00;99.90
46898;DHT22;32646;50.958;6.258;2022-12-07T18:06:17;4.00;99.90
46898;DHT22;32646;50.958;6.258;2022-12-07T18:08:45;4.00;99.90
46898;DHT22;32646;50.958;6.258;2022-12-07T18:11:12;4.00;99.90
46898;DHT22;32646;50.958;6.258;2022-12-07T18:13:38;4.00;99.90